sensor_id;sensor_type;location;lat;lon;timestamp;P1;durP1;ratioP1;P2;durP2;ratioP2
20908;SDS011;10614;53.198;6.570;2023-07-22T00:01:52;22.65;;;9.95;;
20908;SDS011;10614;53.198;6.570;2023-07-22T00:03:54;24.15;;;10.95;;
20908;SDS011;10614;53.198;6.570;2023-07-22T00:06:02;20.33;;;10.30;;
20908;SDS011;10614;53.198;6.570;2023-07-22T00:08:05;19.42;;;9.38;;
20908;SDS011;10614;53.198;6.570;2023-07-22T00:10:09;18.55;;;9.95;;
20908;SDS011;10614;53.198;6.570;2023-07-22T00:12:11;19.67;;;9.63;;
20908;SDS011;10614;53.198;6.570;2023-07-22T00:14:12;18.38;;;9.90;;
20908;SDS011;10614;53.198;6.570;2023-07-22T00:16:14;20.90;;;10.32;;
20908;SDS011;10614;53.198;6.570;2023-07-22T00:18:16;18.95;;;9.65;;
20908;SDS011;10614;53.198;6.570;2023-07-22T00:20:18;18.27;;;9.93;;
20908;SDS011;10614;53.198;6.570;2023-07-22T00:22:20;19.35;;;9.65;;
20908;SDS011;10614;53.198;6.570;2023-07-22T00:24:22;15.93;;;8.93;;
20908;SDS011;10614;53.198;6.570;2023-07-22T00:26:25;19.98;;;9.98;;
20908;SDS011;10614;53.198;6.570;2023-07-22T00:28:27;19.05;;;10.05;;
20908;SDS011;10614;53.198;6.570;2023-07-22T00:30:29;25.67;;;10.75;;
20908;SDS011;10614;53.198;6.570;2023-07-22T00:32:31;18.55;;;9.70;;
20908;SDS011;10614;53.198;6.570;2023-07-22T00:34:33;18.95;;;9.93;;
20908;SDS011;10614;53.198;6.570;2023-07-22T00:36:34;16.65;;;9.60;;
20908;SDS011;10614;53.198;6.570;2023-07-22T00:38:38;19.45;;;9.50;;
20908;SDS011;10614;53.198;6.570;2023-07-22T00:40:40;18.40;;;9.63;;
20908;SDS011;10614;53.198;6.570;2023-07-22T00:42:43;16.75;;;9.43;;
20908;SDS011;10614;53.198;6.570;2023-07-22T00:44:43;19.15;;;9.40;;
20908;SDS011;10614;53.198;6.570;2023-07-22T00:46:45;17.15;;;9.13;;
20908;SDS011;10614;53.198;6.570;2023-07-22T00:48:47;17.15;;;8.73;;
20908;SDS011;10614;53.198;6.570;2023-07-22T00:50:51;19.67;;;9.43;;
20908;SDS011;10614;53.198;6.570;2023-07-22T00:52:53;18.45;;;9.32;;
20908;SDS011;10614;53.198;6.570;2023-07-22T00:54:55;19.20;;;9.25;;
20908;SDS011;10614;53.198;6.570;2023-07-22T00:56:57;16.38;;;8.50;;
20908;SDS011;10614;53.198;6.570;2023-07-22T00:59:00;14.80;;;8.60;;
20908;SDS011;10614;53.198;6.570;2023-07-22T01:01:02;19.85;;;9.00;;
20908;SDS011;10614;53.198;6.570;2023-07-22T01:03:04;19.73;;;9.50;;
20908;SDS011;10614;53.198;6.570;2023-07-22T01:05:07;18.10;;;8.98;;
20908;SDS011;10614;53.198;6.570;2023-07-22T01:07:11;16.85;;;8.48;;
20908;SDS011;10614;53.198;6.570;2023-07-22T01:09:14;18.40;;;9.07;;
20908;SDS011;10614;53.198;6.570;2023-07-22T01:11:15;19.60;;;9.02;;
20908;SDS011;10614;53.198;6.570;2023-07-22T01:13:17;22.88;;;9.93;;
20908;SDS011;10614;53.198;6.570;2023-07-22T01:15:21;18.52;;;9.10;;
20908;SDS011;10614;53.198;6.570;2023-07-22T01:17:24;18.42;;;8.73;;
20908;SDS011;10614;53.198;6.570;2023-07-22T01:19:25;16.05;;;8.52;;
20908;SDS011;10614;53.198;6.570;2023-07-22T01:21:27;21.70;;;9.38;;
20908;SDS011;10614;53.198;6.570;2023-07-22T01:23:31;18.42;;;8.80;;
20908;SDS011;10614;53.198;6.570;2023-07-22T01:25:33;14.73;;;8.55;;
20908;SDS011;10614;53.198;6.570;2023-07-22T01:27:35;21.23;;;9.30;;
20908;SDS011;10614;53.198;6.570;2023-07-22T01:29:37;20.50;;;9.02;;
20908;SDS011;10614;53.198;6.570;2023-07-22T01:31:39;19.67;;;8.82;;
20908;SDS011;10614;53.198;6.570;2023-07-22T01:33:39;17.67;;;8.18;;
20908;SDS011;10614;53.198;6.570;2023-07-22T01:35:41;16.52;;;7.97;;
20908;SDS011;10614;53.198;6.570;2023-07-22T01:37:43;14.48;;;8.35;;
20908;SDS011;10614;53.198;6.570;2023-07-22T01:39:46;17.70;;;8.88;;
20908;SDS011;10614;53.198;6.570;2023-07-22T01:41:47;16.38;;;7.63;;
20908;SDS011;10614;53.198;6.570;2023-07-22T01:43:49;13.30;;;7.90;;
20908;SDS011;10614;53.198;6.570;2023-07-22T01:45:51;14.55;;;7.88;;
20908;SDS011;10614;53.198;6.570;2023-07-22T01:47:54;14.40;;;7.22;;
20908;SDS011;10614;53.198;6.570;2023-07-22T01:49:56;14.30;;;7.40;;
20908;SDS011;10614;53.198;6.570;2023-07-22T01:51:57;11.63;;;6.30;;
20908;SDS011;10614;53.198;6.570;2023-07-22T01:54:00;12.52;;;7.35;;
20908;SDS011;10614;53.198;6.570;2023-07-22T01:56:04;15.15;;;7.80;;
20908;SDS011;10614;53.198;6.570;2023-07-22T01:58:06;12.80;;;6.93;;
20908;SDS011;10614;53.198;6.570;2023-07-22T02:00:08;14.80;;;6.85;;
20908;SDS011;10614;53.198;6.570;2023-07-22T02:02:11;15.60;;;7.20;;
20908;SDS011;10614;53.198;6.570;2023-07-22T02:04:12;17.42;;;7.70;;
20908;SDS011;10614;53.198;6.570;2023-07-22T02:06:14;14.95;;;7.75;;
20908;SDS011;10614;53.198;6.570;2023-07-22T02:08:16;16.15;;;7.63;;
20908;SDS011;10614;53.198;6.570;2023-07-22T02:10:18;16.45;;;7.95;;
20908;SDS011;10614;53.198;6.570;2023-07-22T02:12:21;16.85;;;7.68;;
20908;SDS011;10614;53.198;6.570;2023-07-22T02:14:26;14.52;;;7.15;;
20908;SDS011;10614;53.198;6.570;2023-07-22T02:16:28;17.58;;;7.82;;
20908;SDS011;10614;53.198;6.570;2023-07-22T02:18:30;15.18;;;7.95;;
20908;SDS011;10614;53.198;6.570;2023-07-22T02:20:32;18.23;;;8.25;;
20908;SDS011;10614;53.198;6.570;2023-07-22T02:22:34;18.38;;;7.90;;
20908;SDS011;10614;53.198;6.570;2023-07-22T02:24:36;15.77;;;7.97;;
20908;SDS011;10614;53.198;6.570;2023-07-22T02:26:38;14.98;;;7.63;;
20908;SDS011;10614;53.198;6.570;2023-07-22T02:28:41;16.58;;;7.55;;
20908;SDS011;10614;53.198;6.570;2023-07-22T02:30:43;16.35;;;7.30;;
20908;SDS011;10614;53.198;6.570;2023-07-22T02:32:45;12.57;;;7.10;;
20908;SDS011;10614;53.198;6.570;2023-07-22T02:34:47;14.30;;;7.30;;
20908;SDS011;10614;53.198;6.570;2023-07-22T02:36:49;14.38;;;7.40;;
20908;SDS011;10614;53.198;6.570;2023-07-22T02:38:50;15.15;;;7.25;;
20908;SDS011;10614;53.198;6.570;2023-07-22T02:40:52;15.15;;;7.32;;
20908;SDS011;10614;53.198;6.570;2023-07-22T02:42:54;15.82;;;8.00;;
20908;SDS011;10614;53.198;6.570;2023-07-22T02:44:57;18.90;;;7.68;;
20908;SDS011;10614;53.198;6.570;2023-07-22T02:46:59;16.13;;;7.47;;
20908;SDS011;10614;53.198;6.570;2023-07-22T02:48:59;14.07;;;7.45;;
20908;SDS011;10614;53.198;6.570;2023-07-22T02:51:03;14.80;;;7.15;;
20908;SDS011;10614;53.198;6.570;2023-07-22T02:53:06;17.95;;;7.80;;
20908;SDS011;10614;53.198;6.570;2023-07-22T02:55:08;13.10;;;6.78;;
20908;SDS011;10614;53.198;6.570;2023-07-22T02:57:11;14.52;;;7.20;;
20908;SDS011;10614;53.198;6.570;2023-07-22T02:59:13;15.52;;;7.13;;
20908;SDS011;10614;53.198;6.570;2023-07-22T03:01:16;17.98;;;7.57;;
20908;SDS011;10614;53.198;6.570;2023-07-22T03:03:19;15.75;;;7.93;;
20908;SDS011;10614;53.198;6.570;2023-07-22T03:05:22;17.70;;;7.63;;
20908;SDS011;10614;53.198;6.570;2023-07-22T03:07:26;17.40;;;7.43;;
20908;SDS011;10614;53.198;6.570;2023-07-22T03:09:27;19.85;;;7.70;;
20908;SDS011;10614;53.198;6.570;2023-07-22T03:11:29;14.98;;;7.65;;
20908;SDS011;10614;53.198;6.570;2023-07-22T03:13:31;16.45;;;7.40;;
20908;SDS011;10614;53.198;6.570;2023-07-22T03:15:35;16.05;;;7.25;;
20908;SDS011;10614;53.198;6.570;2023-07-22T03:17:38;14.85;;;7.32;;
20908;SDS011;10614;53.198;6.570;2023-07-22T03:19:42;15.80;;;7.55;;
20908;SDS011;10614;53.198;6.570;2023-07-22T03:21:42;17.75;;;7.78;;
20908;SDS011;10614;53.198;6.570;2023-07-22T03:23:44;18.55;;;7.95;;
20908;SDS011;10614;53.198;6.570;2023-07-22T03:25:46;15.98;;;7.85;;
20908;SDS011;10614;53.198;6.570;2023-07-22T03:27:48;18.63;;;8.25;;
20908;SDS011;10614;53.198;6.570;2023-07-22T03:29:50;18.38;;;7.72;;
20908;SDS011;10614;53.198;6.570;2023-07-22T03:31:52;16.25;;;8.07;;
20908;SDS011;10614;53.198;6.570;2023-07-22T03:33:55;16.20;;;8.05;;
20908;SDS011;10614;53.198;6.570;2023-07-22T03:35:58;16.80;;;7.07;;
20908;SDS011;10614;53.198;6.570;2023-07-22T03:38:00;18.70;;;7.80;;
20908;SDS011;10614;53.198;6.570;2023-07-22T03:40:02;15.55;;;7.85;;
20908;SDS011;10614;53.198;6.570;2023-07-22T03:42:05;19.48;;;8.55;;
20908;SDS011;10614;53.198;6.570;2023-07-22T03:44:07;17.33;;;8.95;;
20908;SDS011;10614;53.198;6.570;2023-07-22T03:46:09;21.50;;;9.60;;
20908;SDS011;10614;53.198;6.570;2023-07-22T03:48:11;21.80;;;10.55;;
20908;SDS011;10614;53.198;6.570;2023-07-22T03:50:14;22.20;;;9.25;;
20908;SDS011;10614;53.198;6.570;2023-07-22T03:52:15;19.95;;;9.43;;
20908;SDS011;10614;53.198;6.570;2023-07-22T03:54:18;17.10;;;9.02;;
20908;SDS011;10614;53.198;6.570;2023-07-22T03:56:20;19.80;;;9.98;;
20908;SDS011;10614;53.198;6.570;2023-07-22T03:58:23;21.08;;;9.68;;
20908;SDS011;10614;53.198;6.570;2023-07-22T04:00:25;19.30;;;9.75;;
20908;SDS011;10614;53.198;6.570;2023-07-22T04:02:27;18.63;;;8.93;;
20908;SDS011;10614;53.198;6.570;2023-07-22T04:04:28;18.25;;;8.63;;
20908;SDS011;10614;53.198;6.570;2023-07-22T04:06:31;18.55;;;9.20;;
20908;SDS011;10614;53.198;6.570;2023-07-22T04:08:33;18.55;;;8.63;;
20908;SDS011;10614;53.198;6.570;2023-07-22T04:10:34;19.80;;;8.95;;
20908;SDS011;10614;53.198;6.570;2023-07-22T04:12:36;15.77;;;8.48;;
20908;SDS011;10614;53.198;6.570;2023-07-22T04:14:38;15.77;;;7.75;;
20908;SDS011;10614;53.198;6.570;2023-07-22T04:16:39;14.40;;;7.05;;
20908;SDS011;10614;53.198;6.570;2023-07-22T04:18:41;15.48;;;7.88;;
20908;SDS011;10614;53.198;6.570;2023-07-22T04:20:43;16.15;;;7.35;;
20908;SDS011;10614;53.198;6.570;2023-07-22T04:22:47;17.08;;;8.32;;
20908;SDS011;10614;53.198;6.570;2023-07-22T04:24:48;17.58;;;7.55;;
20908;SDS011;10614;53.198;6.570;2023-07-22T04:26:50;12.05;;;7.05;;
20908;SDS011;10614;53.198;6.570;2023-07-22T04:28:53;14.38;;;6.75;;
20908;SDS011;10614;53.198;6.570;2023-07-22T04:30:56;14.05;;;7.10;;
20908;SDS011;10614;53.198;6.570;2023-07-22T04:33:00;12.80;;;7.32;;
20908;SDS011;10614;53.198;6.570;2023-07-22T04:35:02;14.48;;;7.45;;
20908;SDS011;10614;53.198;6.570;2023-07-22T04:37:05;13.38;;;7.43;;
20908;SDS011;10614;53.198;6.570;2023-07-22T04:39:08;15.88;;;7.95;;
20908;SDS011;10614;53.198;6.570;2023-07-22T04:41:09;14.13;;;7.40;;
20908;SDS011;10614;53.198;6.570;2023-07-22T04:43:11;18.10;;;8.90;;
20908;SDS011;10614;53.198;6.570;2023-07-22T04:45:13;15.13;;;7.90;;
20908;SDS011;10614;53.198;6.570;2023-07-22T04:47:15;15.23;;;7.90;;
20908;SDS011;10614;53.198;6.570;2023-07-22T04:49:17;18.50;;;8.45;;
20908;SDS011;10614;53.198;6.570;2023-07-22T04:51:19;15.55;;;7.68;;
20908;SDS011;10614;53.198;6.570;2023-07-22T04:53:21;15.10;;;7.50;;
20908;SDS011;10614;53.198;6.570;2023-07-22T04:55:25;12.85;;;7.38;;
20908;SDS011;10614;53.198;6.570;2023-07-22T04:57:29;18.05;;;8.85;;
20908;SDS011;10614;53.198;6.570;2023-07-22T04:59:31;16.55;;;8.63;;
20908;SDS011;10614;53.198;6.570;2023-07-22T05:01:33;17.88;;;8.50;;
20908;SDS011;10614;53.198;6.570;2023-07-22T05:03:35;17.13;;;8.68;;
20908;SDS011;10614;53.198;6.570;2023-07-22T05:05:36;16.85;;;8.50;;
20908;SDS011;10614;53.198;6.570;2023-07-22T05:07:39;14.27;;;8.05;;
20908;SDS011;10614;53.198;6.570;2023-07-22T05:09:40;15.57;;;8.30;;
20908;SDS011;10614;53.198;6.570;2023-07-22T05:11:43;15.57;;;8.52;;
20908;SDS011;10614;53.198;6.570;2023-07-22T05:13:45;15.05;;;7.88;;
20908;SDS011;10614;53.198;6.570;2023-07-22T05:15:47;16.80;;;8.65;;
20908;SDS011;10614;53.198;6.570;2023-07-22T05:17:49;15.18;;;7.90;;
20908;SDS011;10614;53.198;6.570;2023-07-22T05:19:51;15.15;;;8.07;;
20908;SDS011;10614;53.198;6.570;2023-07-22T05:21:55;19.20;;;9.85;;
20908;SDS011;10614;53.198;6.570;2023-07-22T05:23:57;16.80;;;9.15;;
20908;SDS011;10614;53.198;6.570;2023-07-22T05:25:59;17.70;;;9.45;;
20908;SDS011;10614;53.198;6.570;2023-07-22T05:28:02;16.77;;;9.15;;
20908;SDS011;10614;53.198;6.570;2023-07-22T05:30:04;16.73;;;9.00;;
20908;SDS011;10614;53.198;6.570;2023-07-22T05:32:07;17.73;;;9.00;;
20908;SDS011;10614;53.198;6.570;2023-07-22T05:34:10;17.95;;;9.27;;
20908;SDS011;10614;53.198;6.570;2023-07-22T05:36:12;17.33;;;8.70;;
20908;SDS011;10614;53.198;6.570;2023-07-22T05:38:14;15.50;;;8.35;;
20908;SDS011;10614;53.198;6.570;2023-07-22T05:40:16;17.90;;;9.85;;
20908;SDS011;10614;53.198;6.570;2023-07-22T05:42:18;16.27;;;9.50;;
20908;SDS011;10614;53.198;6.570;2023-07-22T05:44:21;16.23;;;8.75;;
20908;SDS011;10614;53.198;6.570;2023-07-22T05:46:22;16.33;;;8.82;;
20908;SDS011;10614;53.198;6.570;2023-07-22T05:48:24;18.02;;;9.60;;
20908;SDS011;10614;53.198;6.570;2023-07-22T05:50:26;17.50;;;9.88;;
20908;SDS011;10614;53.198;6.570;2023-07-22T05:52:28;16.65;;;10.40;;
20908;SDS011;10614;53.198;6.570;2023-07-22T05:54:30;15.80;;;9.63;;
20908;SDS011;10614;53.198;6.570;2023-07-22T05:56:31;16.40;;;9.27;;
20908;SDS011;10614;53.198;6.570;2023-07-22T05:58:33;20.10;;;10.38;;
20908;SDS011;10614;53.198;6.570;2023-07-22T06:00:36;17.63;;;9.63;;
20908;SDS011;10614;53.198;6.570;2023-07-22T06:02:40;17.77;;;10.07;;
20908;SDS011;10614;53.198;6.570;2023-07-22T06:04:43;18.55;;;10.00;;
20908;SDS011;10614;53.198;6.570;2023-07-22T06:06:45;20.30;;;9.93;;
20908;SDS011;10614;53.198;6.570;2023-07-22T06:08:47;17.92;;;9.88;;
20908;SDS011;10614;53.198;6.570;2023-07-22T06:10:49;18.10;;;10.55;;
20908;SDS011;10614;53.198;6.570;2023-07-22T06:12:51;17.75;;;10.13;;
20908;SDS011;10614;53.198;6.570;2023-07-22T06:14:53;18.77;;;10.40;;
20908;SDS011;10614;53.198;6.570;2023-07-22T06:16:55;21.10;;;10.63;;
20908;SDS011;10614;53.198;6.570;2023-07-22T06:18:57;19.67;;;10.90;;
20908;SDS011;10614;53.198;6.570;2023-07-22T06:20:59;21.27;;;10.90;;
20908;SDS011;10614;53.198;6.570;2023-07-22T06:23:05;17.92;;;10.20;;
20908;SDS011;10614;53.198;6.570;2023-07-22T06:25:08;17.70;;;10.07;;
20908;SDS011;10614;53.198;6.570;2023-07-22T06:27:10;18.80;;;11.13;;
20908;SDS011;10614;53.198;6.570;2023-07-22T06:29:12;17.27;;;10.77;;
20908;SDS011;10614;53.198;6.570;2023-07-22T06:31:13;17.17;;;10.65;;
20908;SDS011;10614;53.198;6.570;2023-07-22T06:33:19;19.38;;;11.43;;
20908;SDS011;10614;53.198;6.570;2023-07-22T06:35:21;19.80;;;11.68;;
20908;SDS011;10614;53.198;6.570;2023-07-22T06:37:23;20.30;;;11.98;;
20908;SDS011;10614;53.198;6.570;2023-07-22T06:39:26;21.08;;;12.95;;
20908;SDS011;10614;53.198;6.570;2023-07-22T06:41:27;19.48;;;12.30;;
20908;SDS011;10614;53.198;6.570;2023-07-22T06:43:30;20.92;;;12.48;;
20908;SDS011;10614;53.198;6.570;2023-07-22T06:45:31;21.58;;;13.13;;
20908;SDS011;10614;53.198;6.570;2023-07-22T06:47:34;21.63;;;13.43;;
20908;SDS011;10614;53.198;6.570;2023-07-22T06:49:37;22.58;;;13.43;;
20908;SDS011;10614;53.198;6.570;2023-07-22T06:51:39;22.17;;;12.52;;
20908;SDS011;10614;53.198;6.570;2023-07-22T06:53:42;20.80;;;11.77;;
20908;SDS011;10614;53.198;6.570;2023-07-22T06:55:50;20.20;;;12.07;;
20908;SDS011;10614;53.198;6.570;2023-07-22T06:57:55;16.30;;;11.35;;
20908;SDS011;10614;53.198;6.570;2023-07-22T06:59:57;18.67;;;11.35;;
20908;SDS011;10614;53.198;6.570;2023-07-22T07:01:59;19.35;;;12.63;;
20908;SDS011;10614;53.198;6.570;2023-07-22T07:04:00;19.23;;;12.18;;
20908;SDS011;10614;53.198;6.570;2023-07-22T07:06:04;19.55;;;12.30;;
20908;SDS011;10614;53.198;6.570;2023-07-22T07:08:06;22.98;;;12.70;;
20908;SDS011;10614;53.198;6.570;2023-07-22T07:10:08;19.30;;;11.57;;
20908;SDS011;10614;53.198;6.570;2023-07-22T07:12:10;16.92;;;11.40;;
20908;SDS011;10614;53.198;6.570;2023-07-22T07:14:12;18.02;;;12.07;;
20908;SDS011;10614;53.198;6.570;2023-07-22T07:16:20;18.65;;;11.82;;
20908;SDS011;10614;53.198;6.570;2023-07-22T07:18:24;16.20;;;10.60;;
20908;SDS011;10614;53.198;6.570;2023-07-22T07:20:26;15.65;;;10.63;;
20908;SDS011;10614;53.198;6.570;2023-07-22T07:22:29;16.50;;;10.77;;
20908;SDS011;10614;53.198;6.570;2023-07-22T07:24:31;18.05;;;11.75;;
20908;SDS011;10614;53.198;6.570;2023-07-22T07:26:33;17.70;;;11.32;;
20908;SDS011;10614;53.198;6.570;2023-07-22T07:28:35;19.50;;;11.98;;
20908;SDS011;10614;53.198;6.570;2023-07-22T07:30:37;16.60;;;11.25;;
20908;SDS011;10614;53.198;6.570;2023-07-22T07:32:40;20.92;;;11.05;;
20908;SDS011;10614;53.198;6.570;2023-07-22T07:34:41;17.80;;;11.30;;
20908;SDS011;10614;53.198;6.570;2023-07-22T07:36:43;20.00;;;11.55;;
20908;SDS011;10614;53.198;6.570;2023-07-22T07:38:47;16.77;;;10.88;;
20908;SDS011;10614;53.198;6.570;2023-07-22T07:40:51;17.02;;;10.85;;
20908;SDS011;10614;53.198;6.570;2023-07-22T07:44:55;18.55;;;11.15;;
20908;SDS011;10614;53.198;6.570;2023-07-22T07:46:57;19.60;;;11.52;;
20908;SDS011;10614;53.198;6.570;2023-07-22T07:48:59;18.70;;;11.80;;
20908;SDS011;10614;53.198;6.570;2023-07-22T07:51:02;17.85;;;11.40;;
20908;SDS011;10614;53.198;6.570;2023-07-22T07:53:04;20.95;;;11.77;;
20908;SDS011;10614;53.198;6.570;2023-07-22T07:55:07;18.90;;;11.63;;
20908;SDS011;10614;53.198;6.570;2023-07-22T07:57:09;18.25;;;12.02;;
20908;SDS011;10614;53.198;6.570;2023-07-22T07:59:11;17.90;;;11.00;;
20908;SDS011;10614;53.198;6.570;2023-07-22T08:01:13;16.48;;;11.15;;
20908;SDS011;10614;53.198;6.570;2023-07-22T08:03:15;19.95;;;11.77;;
20908;SDS011;10614;53.198;6.570;2023-07-22T08:05:17;16.77;;;11.38;;
20908;SDS011;10614;53.198;6.570;2023-07-22T08:07:19;17.05;;;10.95;;
20908;SDS011;10614;53.198;6.570;2023-07-22T08:09:21;17.65;;;11.40;;
20908;SDS011;10614;53.198;6.570;2023-07-22T08:11:24;16.73;;;11.07;;
20908;SDS011;10614;53.198;6.570;2023-07-22T08:13:27;16.25;;;11.63;;
20908;SDS011;10614;53.198;6.570;2023-07-22T08:15:31;18.30;;;12.00;;
20908;SDS011;10614;53.198;6.570;2023-07-22T08:17:34;19.27;;;11.25;;
20908;SDS011;10614;53.198;6.570;2023-07-22T08:19:36;16.05;;;10.82;;
20908;SDS011;10614;53.198;6.570;2023-07-22T08:21:38;16.25;;;10.60;;
20908;SDS011;10614;53.198;6.570;2023-07-22T08:23:40;15.82;;;10.05;;
20908;SDS011;10614;53.198;6.570;2023-07-22T08:25:46;15.00;;;9.60;;
20908;SDS011;10614;53.198;6.570;2023-07-22T08:27:49;14.52;;;9.65;;
20908;SDS011;10614;53.198;6.570;2023-07-22T08:29:53;12.05;;;8.23;;
20908;SDS011;10614;53.198;6.570;2023-07-22T08:31:55;13.25;;;8.98;;
20908;SDS011;10614;53.198;6.570;2023-07-22T08:33:56;11.93;;;8.63;;
20908;SDS011;10614;53.198;6.570;2023-07-22T08:35:59;13.32;;;8.63;;
20908;SDS011;10614;53.198;6.570;2023-07-22T08:38:00;12.00;;;8.60;;
20908;SDS011;10614;53.198;6.570;2023-07-22T08:40:02;12.60;;;7.85;;
20908;SDS011;10614;53.198;6.570;2023-07-22T08:42:05;12.05;;;8.40;;
20908;SDS011;10614;53.198;6.570;2023-07-22T08:44:10;11.57;;;8.20;;
20908;SDS011;10614;53.198;6.570;2023-07-22T08:46:14;11.63;;;7.90;;
20908;SDS011;10614;53.198;6.570;2023-07-22T08:48:17;13.15;;;7.88;;
20908;SDS011;10614;53.198;6.570;2023-07-22T08:50:20;13.95;;;8.55;;
20908;SDS011;10614;53.198;6.570;2023-07-22T08:52:24;12.63;;;7.63;;
20908;SDS011;10614;53.198;6.570;2023-07-22T08:54:26;12.88;;;7.30;;
20908;SDS011;10614;53.198;6.570;2023-07-22T08:56:29;10.35;;;6.70;;
20908;SDS011;10614;53.198;6.570;2023-07-22T08:58:32;9.77;;;5.85;;
20908;SDS011;10614;53.198;6.570;2023-07-22T09:00:38;9.38;;;6.15;;
20908;SDS011;10614;53.198;6.570;2023-07-22T09:02:41;11.45;;;6.70;;
20908;SDS011;10614;53.198;6.570;2023-07-22T09:04:43;10.10;;;6.22;;
20908;SDS011;10614;53.198;6.570;2023-07-22T09:06:46;9.88;;;5.90;;
20908;SDS011;10614;53.198;6.570;2023-07-22T09:08:49;8.60;;;6.28;;
20908;SDS011;10614;53.198;6.570;2023-07-22T09:10:51;9.68;;;6.50;;
20908;SDS011;10614;53.198;6.570;2023-07-22T09:12:53;10.00;;;6.65;;
20908;SDS011;10614;53.198;6.570;2023-07-22T09:14:58;11.57;;;6.70;;
20908;SDS011;10614;53.198;6.570;2023-07-22T09:17:01;11.48;;;6.30;;
20908;SDS011;10614;53.198;6.570;2023-07-22T09:19:03;8.57;;;5.80;;
20908;SDS011;10614;53.198;6.570;2023-07-22T09:21:05;8.82;;;5.70;;
20908;SDS011;10614;53.198;6.570;2023-07-22T09:23:07;8.27;;;5.57;;
20908;SDS011;10614;53.198;6.570;2023-07-22T09:25:13;10.77;;;6.15;;
20908;SDS011;10614;53.198;6.570;2023-07-22T09:27:15;10.00;;;6.28;;
20908;SDS011;10614;53.198;6.570;2023-07-22T09:29:17;9.25;;;6.38;;
20908;SDS011;10614;53.198;6.570;2023-07-22T09:31:20;9.35;;;6.15;;
20908;SDS011;10614;53.198;6.570;2023-07-22T09:33:24;7.82;;;5.53;;
20908;SDS011;10614;53.198;6.570;2023-07-22T09:35:26;11.82;;;7.00;;
20908;SDS011;10614;53.198;6.570;2023-07-22T09:37:38;13.52;;;8.40;;
20908;SDS011;10614;53.198;6.570;2023-07-22T09:39:39;14.38;;;8.55;;
20908;SDS011;10614;53.198;6.570;2023-07-22T09:41:45;14.98;;;9.30;;
20908;SDS011;10614;53.198;6.570;2023-07-22T09:43:47;16.58;;;10.02;;
20908;SDS011;10614;53.198;6.570;2023-07-22T09:45:49;15.82;;;9.63;;
20908;SDS011;10614;53.198;6.570;2023-07-22T09:47:52;15.77;;;10.23;;
20908;SDS011;10614;53.198;6.570;2023-07-22T09:49:56;16.42;;;10.48;;
20908;SDS011;10614;53.198;6.570;2023-07-22T09:51:58;17.58;;;11.05;;
20908;SDS011;10614;53.198;6.570;2023-07-22T09:54:00;14.93;;;9.85;;
20908;SDS011;10614;53.198;6.570;2023-07-22T09:56:04;13.63;;;9.73;;
20908;SDS011;10614;53.198;6.570;2023-07-22T09:58:05;15.25;;;9.98;;
20908;SDS011;10614;53.198;6.570;2023-07-22T10:00:09;13.75;;;9.00;;
20908;SDS011;10614;53.198;6.570;2023-07-22T10:02:11;14.07;;;8.55;;
20908;SDS011;10614;53.198;6.570;2023-07-22T10:04:14;13.25;;;9.20;;
20908;SDS011;10614;53.198;6.570;2023-07-22T10:06:19;12.88;;;8.85;;
20908;SDS011;10614;53.198;6.570;2023-07-22T10:08:21;14.52;;;9.35;;
20908;SDS011;10614;53.198;6.570;2023-07-22T10:10:26;13.18;;;9.13;;
20908;SDS011;10614;53.198;6.570;2023-07-22T10:12:32;13.27;;;8.65;;
20908;SDS011;10614;53.198;6.570;2023-07-22T10:14:34;11.20;;;8.10;;
20908;SDS011;10614;53.198;6.570;2023-07-22T10:16:37;13.38;;;8.50;;
20908;SDS011;10614;53.198;6.570;2023-07-22T10:18:39;13.25;;;8.40;;
20908;SDS011;10614;53.198;6.570;2023-07-22T10:20:43;12.77;;;8.65;;
20908;SDS011;10614;53.198;6.570;2023-07-22T10:22:47;14.32;;;9.27;;
20908;SDS011;10614;53.198;6.570;2023-07-22T10:24:48;11.25;;;8.18;;
20908;SDS011;10614;53.198;6.570;2023-07-22T10:26:51;11.80;;;7.65;;
20908;SDS011;10614;53.198;6.570;2023-07-22T10:28:53;11.90;;;8.10;;
20908;SDS011;10614;53.198;6.570;2023-07-22T10:30:58;11.85;;;8.68;;
20908;SDS011;10614;53.198;6.570;2023-07-22T10:33:00;11.68;;;8.30;;
20908;SDS011;10614;53.198;6.570;2023-07-22T10:35:05;11.77;;;8.65;;
20908;SDS011;10614;53.198;6.570;2023-07-22T10:37:11;12.65;;;8.75;;
20908;SDS011;10614;53.198;6.570;2023-07-22T10:39:18;11.77;;;7.82;;
20908;SDS011;10614;53.198;6.570;2023-07-22T10:41:26;12.55;;;8.43;;
20908;SDS011;10614;53.198;6.570;2023-07-22T10:43:29;11.25;;;7.88;;
20908;SDS011;10614;53.198;6.570;2023-07-22T10:45:39;11.45;;;7.93;;
20908;SDS011;10614;53.198;6.570;2023-07-22T10:47:42;11.35;;;7.63;;
20908;SDS011;10614;53.198;6.570;2023-07-22T10:49:44;10.57;;;7.90;;
20908;SDS011;10614;53.198;6.570;2023-07-22T10:51:48;10.50;;;7.90;;
20908;SDS011;10614;53.198;6.570;2023-07-22T10:53:51;11.10;;;8.25;;
20908;SDS011;10614;53.198;6.570;2023-07-22T10:56:06;11.10;;;7.43;;
20908;SDS011;10614;53.198;6.570;2023-07-22T10:58:17;9.80;;;6.82;;
20908;SDS011;10614;53.198;6.570;2023-07-22T11:00:20;11.70;;;7.65;;
20908;SDS011;10614;53.198;6.570;2023-07-22T11:02:23;9.65;;;7.22;;
20908;SDS011;10614;53.198;6.570;2023-07-22T11:04:25;12.13;;;8.25;;
20908;SDS011;10614;53.198;6.570;2023-07-22T11:06:36;10.68;;;7.70;;
20908;SDS011;10614;53.198;6.570;2023-07-22T11:08:38;12.57;;;7.85;;
20908;SDS011;10614;53.198;6.570;2023-07-22T11:10:51;11.82;;;8.20;;
20908;SDS011;10614;53.198;6.570;2023-07-22T11:12:55;11.23;;;7.93;;
20908;SDS011;10614;53.198;6.570;2023-07-22T11:15:02;10.82;;;7.53;;
20908;SDS011;10614;53.198;6.570;2023-07-22T11:17:06;11.63;;;7.68;;
20908;SDS011;10614;53.198;6.570;2023-07-22T11:19:09;11.63;;;7.38;;
20908;SDS011;10614;53.198;6.570;2023-07-22T11:21:11;11.98;;;8.68;;
20908;SDS011;10614;53.198;6.570;2023-07-22T11:23:13;10.27;;;7.35;;
20908;SDS011;10614;53.198;6.570;2023-07-22T11:25:18;9.32;;;7.38;;
20908;SDS011;10614;53.198;6.570;2023-07-22T11:27:20;10.63;;;7.40;;
20908;SDS011;10614;53.198;6.570;2023-07-22T11:29:22;11.27;;;7.82;;
20908;SDS011;10614;53.198;6.570;2023-07-22T11:31:29;12.18;;;8.13;;
20908;SDS011;10614;53.198;6.570;2023-07-22T11:33:40;11.82;;;8.57;;
20908;SDS011;10614;53.198;6.570;2023-07-22T11:35:47;10.48;;;7.72;;
20908;SDS011;10614;53.198;6.570;2023-07-22T11:37:49;12.30;;;8.10;;
20908;SDS011;10614;53.198;6.570;2023-07-22T11:40:04;9.77;;;7.25;;
20908;SDS011;10614;53.198;6.570;2023-07-22T11:42:08;11.25;;;8.15;;
20908;SDS011;10614;53.198;6.570;2023-07-22T11:44:11;11.82;;;8.50;;
20908;SDS011;10614;53.198;6.570;2023-07-22T11:46:15;11.82;;;8.10;;
20908;SDS011;10614;53.198;6.570;2023-07-22T11:48:17;13.68;;;10.00;;
20908;SDS011;10614;53.198;6.570;2023-07-22T11:50:23;12.15;;;9.43;;
20908;SDS011;10614;53.198;6.570;2023-07-22T11:52:32;13.70;;;10.32;;
20908;SDS011;10614;53.198;6.570;2023-07-22T11:54:35;12.57;;;9.63;;
20908;SDS011;10614;53.198;6.570;2023-07-22T11:56:37;13.02;;;9.65;;
20908;SDS011;10614;53.198;6.570;2023-07-22T11:58:41;13.32;;;9.80;;
20908;SDS011;10614;53.198;6.570;2023-07-22T12:00:44;14.82;;;11.40;;
20908;SDS011;10614;53.198;6.570;2023-07-22T12:02:48;13.95;;;10.70;;
20908;SDS011;10614;53.198;6.570;2023-07-22T12:04:52;15.77;;;10.40;;
20908;SDS011;10614;53.198;6.570;2023-07-22T12:06:55;14.60;;;10.48;;
20908;SDS011;10614;53.198;6.570;2023-07-22T12:08:57;14.13;;;11.57;;